Time;durP1;ratioP1;P1;durP2;ratioP2;P2;SDS_P1;SDS_P2;PMS_P1;PMS_P2;Temp;Humidity;BMP_temperature;BMP_pressure;BME280_temperature;BME280_humidity;BME280_pressure;Samples;Min_cycle;Max_cycle;Signal;HPM_P1;HPM_P2
2022/03/06 00:00:11;;;;;;;0.40;0.40;;;0.20;58.20;;;;;;4993961;28;20230;-68
2022/03/06 00:02:37;;;;;;;0.40;0.40;;;0.10;58.30;;;;;;4994218;28;20251;-68
2022/03/06 00:05:04;;;;;;;0.40;0.40;;;0.20;58.80;;;;;;4976576;28;20263;-69
2022/03/06 00:07:30;;;;;;;0.40;0.40;;;0.20;59.30;;;;;;4976563;28;20188;-69
2022/03/06 00:09:55;;;;;;;0.40;0.40;;;0.20;59.50;;;;;;4994083;28;20223;-68
2022/03/06 00:12:21;;;;;;;0.53;0.53;;;0.20;59.30;;;;;;4994059;28;20194;-68
2022/03/06 00:14:46;;;;;;;0.40;0.40;;;0.20;58.80;;;;;;4994126;28;20200;-68
2022/03/06 00:17:12;;;;;;;0.40;0.40;;;0.20;58.90;;;;;;4994198;28;20176;-69
2022/03/06 00:19:38;;;;;;;0.40;0.40;;;0.20;59.00;;;;;;4994031;28;20658;-68
2022/03/06 00:22:05;;;;;;;0.40;0.40;;;0.00;58.70;;;;;;4993801;28;20175;-69
2022/03/06 00:24:31;;;;;;;0.55;0.55;;;0.00;58.90;;;;;;4993854;28;20188;-69
2022/03/06 00:26:56;;;;;;;0.60;0.60;;;0.00;59.50;;;;;;4994123;28;20299;-69
2022/03/06 00:29:22;;;;;;;0.60;0.60;;;0.00;60.40;;;;;;4993980;28;20206;-69
2022/03/06 00:31:48;;;;;;;0.60;0.60;;;0.00;59.60;;;;;;4993886;28;20168;-68
2022/03/06 00:34:14;;;;;;;0.50;0.50;;;-0.10;59.50;;;;;;4993986;28;20286;-68
2022/03/06 00:36:39;;;;;;;0.60;0.60;;;-0.10;60.40;;;;;;4993852;28;20178;-69
2022/03/06 00:39:05;;;;;;;0.50;0.50;;;-0.10;59.80;;;;;;4976370;28;20283;-69
2022/03/06 00:41:31;;;;;;;1.50;1.50;;;-0.10;60.00;;;;;;4976158;28;20988;-68
2022/03/06 00:43:57;;;;;;;0.50;0.50;;;-0.10;59.90;;;;;;4993758;28;20239;-69
2022/03/06 00:46:23;;;;;;;0.40;0.40;;;-0.10;59.90;;;;;;4993803;28;20446;-68
2022/03/06 00:48:51;;;;;;;0.60;0.60;;;-0.10;59.90;;;;;;4976456;28;20183;-69
2022/03/06 00:51:17;;;;;;;0.50;0.50;;;-0.10;60.00;;;;;;4993527;28;20422;-68
2022/03/06 00:53:43;;;;;;;0.43;0.43;;;-0.10;60.20;;;;;;4993697;28;20199;-68
2022/03/06 00:56:09;;;;;;;0.70;0.70;;;-0.10;60.30;;;;;;4993762;28;20204;-69
2022/03/06 00:58:35;;;;;;;0.40;0.40;;;-0.10;60.70;;;;;;4993741;28;20173;-69
2022/03/06 01:01:01;;;;;;;0.60;0.60;;;-0.20;60.80;;;;;;4976009;28;20836;-69
2022/03/06 01:03:27;;;;;;;0.40;0.40;;;-0.20;60.60;;;;;;4992556;28;20196;-68
2022/03/06 01:05:53;;;;;;;0.50;0.50;;;-0.30;60.80;;;;;;4993555;28;20176;-69
2022/03/06 01:08:19;;;;;;;0.90;0.90;;;-0.30;61.10;;;;;;4994489;28;20176;-69
2022/03/06 01:10:47;;;;;;;1.13;1.13;;;-0.30;61.20;;;;;;4996946;28;20411;-67
2022/03/06 01:13:13;;;;;;;0.40;0.40;;;-0.40;61.20;;;;;;4979551;28;20992;-68
2022/03/06 01:15:39;;;;;;;0.60;0.60;;;-0.60;61.50;;;;;;4979567;28;20560;-69
2022/03/06 01:18:06;;;;;;;0.50;0.50;;;-0.60;62.60;;;;;;4997115;28;20284;-69
2022/03/06 01:20:36;;;;;;;0.55;0.55;;;-0.60;63.30;;;;;;4996657;28;20481;-68
2022/03/06 01:23:02;;;;;;;0.60;0.60;;;-0.50;64.00;;;;;;4996855;28;20188;-68
2022/03/06 01:25:28;;;;;;;0.40;0.40;;;-0.50;63.60;;;;;;4996988;28;20263;-68
2022/03/06 01:27:54;;;;;;;0.60;0.60;;;-0.70;63.70;;;;;;4996792;28;20262;-68
2022/03/06 01:30:21;;;;;;;0.50;0.50;;;-0.70;64.30;;;;;;4996674;28;20408;-69
2022/03/06 01:32:47;;;;;;;0.40;0.40;;;-0.60;72.50;;;;;;4996620;28;20203;-67
2022/03/06 01:35:13;;;;;;;0.45;0.45;;;-0.70;64.90;;;;;;4979173;28;20194;-68
2022/03/06 01:37:39;;;;;;;0.50;0.50;;;-0.60;64.60;;;;;;4996714;28;20176;-67
2022/03/06 01:40:06;;;;;;;0.80;0.80;;;-0.60;64.30;;;;;;4996421;28;20466;-68
2022/03/06 01:42:32;;;;;;;0.60;0.60;;;-0.60;64.10;;;;;;4996640;28;20415;-68
2022/03/06 01:44:58;;;;;;;0.52;0.52;;;-0.60;64.40;;;;;;4996417;28;20562;-67
2022/03/06 01:47:51;;;;;;;0.60;0.60;;;-0.70;64.30;;;;;;4996471;28;20169;-68
2022/03/06 01:50:23;;;;;;;0.50;0.50;;;-0.70;64.20;;;;;;4994412;28;20766;-68
2022/03/06 01:52:51;;;;;;;0.40;0.40;;;-1.00;71.40;;;;;;4996559;28;20210;-68
2022/03/06 01:55:19;;;;;;;0.50;0.50;;;-0.70;64.80;;;;;;4996295;28;20642;-68
2022/03/06 01:57:46;;;;;;;0.80;0.80;;;-0.60;65.10;;;;;;4996664;28;20523;-68
2022/03/06 02:00:19;;;;;;;0.50;0.50;;;-0.60;64.90;;;;;;4996036;28;20854;-67
2022/03/06 02:02:45;;;;;;;0.50;0.50;;;-0.70;70.20;;;;;;4996175;28;20168;-68
2022/03/06 02:05:11;;;;;;;0.50;0.50;;;-0.70;65.00;;;;;;4996193;28;20217;-68
2022/03/06 02:07:38;;;;;;;0.50;0.50;;;-0.70;65.80;;;;;;4996254;28;20179;-67
2022/03/06 02:10:05;;;;;;;0.75;0.75;;;-0.80;66.00;;;;;;4996010;28;20180;-68
2022/03/06 02:12:31;;;;;;;0.47;0.47;;;-0.80;65.90;;;;;;4995726;28;20187;-68
2022/03/06 02:14:59;;;;;;;0.50;0.50;;;-0.80;65.50;;;;;;4995883;28;20283;-67
2022/03/06 02:17:26;;;;;;;0.40;0.40;;;-0.80;66.30;;;;;;4996121;28;20174;-67
2022/03/06 02:19:52;;;;;;;0.60;0.60;;;-0.90;66.10;;;;;;4995639;28;20266;-69
2022/03/06 02:22:22;;;;;;;0.50;0.50;;;-0.90;66.90;;;;;;4995986;28;20227;-68
2022/03/06 02:24:48;;;;;;;0.60;0.60;;;-0.90;66.50;;;;;;4995724;28;20271;-68
2022/03/06 02:27:14;;;;;;;0.40;0.40;;;-1.00;66.50;;;;;;4995709;28;20208;-67
2022/03/06 02:29:41;;;;;;;0.50;0.50;;;-1.10;66.40;;;;;;4995858;28;20403;-67
2022/03/06 02:32:11;;;;;;;0.40;0.40;;;-1.10;66.80;;;;;;4995557;28;20494;-67
2022/03/06 02:34:38;;;;;;;0.40;0.40;;;-1.10;67.70;;;;;;4978070;28;20677;-68
2022/03/06 02:37:04;;;;;;;0.60;0.60;;;-1.10;69.00;;;;;;4995438;28;20180;-68
2022/03/06 02:39:30;;;;;;;0.60;0.60;;;-1.20;68.10;;;;;;4995416;28;20179;-68
2022/03/06 02:41:56;;;;;;;0.40;0.40;;;-1.20;68.30;;;;;;4995303;28;20200;-68
2022/03/06 02:44:21;;;;;;;0.50;0.50;;;-1.20;68.20;;;;;;4995445;28;20239;-67
2022/03/06 02:46:48;;;;;;;0.60;0.60;;;-1.30;68.60;;;;;;4995590;28;20176;-68
2022/03/06 02:49:14;;;;;;;0.50;0.50;;;-1.30;69.30;;;;;;4995465;28;20402;-67
2022/03/06 02:51:41;;;;;;;0.47;0.47;;;-1.40;69.50;;;;;;4995227;28;20177;-68
2022/03/06 02:54:07;;;;;;;0.30;0.30;;;-1.30;70.10;;;;;;4995114;28;20506;-68
2022/03/06 02:56:33;;;;;;;0.40;0.40;;;-1.30;70.20;;;;;;4995112;28;20176;-69
2022/03/06 02:58:59;;;;;;;0.63;0.63;;;-1.30;71.10;;;;;;4995096;28;20180;-68
2022/03/06 03:01:25;;;;;;;0.60;0.60;;;-1.20;71.60;;;;;;4994997;28;20210;-67
2022/03/06 03:03:51;;;;;;;0.57;0.57;;;-1.20;71.40;;;;;;4995077;28;20650;-68
2022/03/06 03:06:17;;;;;;;0.50;0.50;;;-1.20;70.60;;;;;;4994942;28;20176;-68
2022/03/06 03:08:42;;;;;;;0.80;0.80;;;-1.20;69.90;;;;;;4995159;28;20172;-68
2022/03/06 03:11:08;;;;;;;0.60;0.60;;;-1.30;69.80;;;;;;4977115;28;20223;-68
2022/03/06 03:13:34;;;;;;;0.60;0.60;;;-1.40;70.30;;;;;;4995031;28;20319;-67
2022/03/06 03:15:59;;;;;;;5.37;5.07;;;-1.40;71.20;;;;;;4994753;28;20223;-68
2022/03/06 03:18:25;;;;;;;0.60;0.60;;;-1.50;71.60;;;;;;4994922;28;20516;-68
2022/03/06 03:20:51;;;;;;;0.70;0.70;;;-1.70;72.20;;;;;;4994484;28;20219;-67
2022/03/06 03:23:16;;;;;;;0.50;0.50;;;-1.70;74.30;;;;;;4994613;28;20246;-68
2022/03/06 03:25:42;;;;;;;0.60;0.60;;;-1.70;74.10;;;;;;4994653;28;20178;-69
2022/03/06 03:28:08;;;;;;;0.50;0.50;;;-1.70;74.00;;;;;;4994959;28;20673;-68
2022/03/06 03:30:34;;;;;;;0.57;0.57;;;-1.90;74.40;;;;;;4994120;28;20285;-67
2022/03/06 03:32:59;;;;;;;0.70;0.70;;;-1.80;75.30;;;;;;4994380;28;20196;-68
2022/03/06 03:35:25;;;;;;;0.63;0.63;;;-1.80;75.30;;;;;;4994432;28;20211;-69
2022/03/06 03:37:51;;;;;;;0.60;0.60;;;-1.70;74.80;;;;;;4994437;28;20203;-68
2022/03/06 03:40:16;;;;;;;0.70;0.70;;;-1.70;74.80;;;;;;4994431;28;20195;-68
2022/03/06 03:42:42;;;;;;;0.60;0.60;;;-1.40;83.60;;;;;;4994437;28;20179;-68
2022/03/06 03:45:08;;;;;;;0.50;0.50;;;-1.60;75.10;;;;;;4994352;28;20195;-68
2022/03/06 03:47:35;;;;;;;0.63;0.63;;;-1.60;75.30;;;;;;4994574;28;20190;-68
2022/03/06 03:50:01;;;;;;;0.90;0.90;;;-1.60;75.50;;;;;;4994013;28;20172;-67
2022/03/06 03:52:27;;;;;;;0.80;0.80;;;-1.70;75.10;;;;;;4994230;28;20180;-67
2022/03/06 03:54:53;;;;;;;0.60;0.60;;;-1.70;75.20;;;;;;4994104;28;20238;-67
2022/03/06 03:57:18;;;;;;;0.60;0.60;;;-1.70;75.20;;;;;;4994400;28;20510;-68
2022/03/06 03:59:44;;;;;;;0.90;0.90;;;-1.80;75.30;;;;;;4994135;28;20227;-67
2022/03/06 04:02:10;;;;;;;0.50;0.50;;;-2.00;76.10;;;;;;4993884;28;20661;-68
2022/03/06 04:04:35;;;;;;;0.57;0.57;;;-2.00;77.50;;;;;;4994192;28;20561;-67
2022/03/06 04:07:01;;;;;;;0.50;0.50;;;-2.00;78.30;;;;;;4994173;28;20180;-67
2022/03/06 04:09:27;;;;;;;0.60;0.60;;;-2.00;78.60;;;;;;4976625;28;20414;-69
2022/03/06 04:11:52;;;;;;;0.50;0.50;;;-1.90;78.40;;;;;;4993721;28;20200;-68
2022/03/06 04:14:18;;;;;;;0.60;0.60;;;-1.90;78.40;;;;;;4994024;28;20592;-68
2022/03/06 04:16:45;;;;;;;0.40;0.40;;;-1.90;78.60;;;;;;4994093;28;20267;-67
2022/03/06 04:19:11;;;;;;;0.70;0.70;;;-1.90;78.70;;;;;;4994068;28;20172;-68
2022/03/06 04:21:36;;;;;;;0.80;0.80;;;-1.90;79.00;;;;;;4993702;28;20455;-69
2022/03/06 04:24:02;;;;;;;0.80;0.80;;;-1.90;79.40;;;;;;4993842;28;20784;-67
2022/03/06 04:26:28;;;;;;;0.70;0.70;;;-1.80;79.00;;;;;;4994031;28;20490;-68
2022/03/06 04:28:54;;;;;;;5.50;2.60;;;-1.80;78.40;;;;;;4993967;28;20561;-67
2022/03/06 04:31:19;;;;;;;0.63;0.63;;;-1.80;78.30;;;;;;4993816;28;20172;-68
2022/03/06 04:33:45;;;;;;;0.60;0.60;;;-1.90;78.60;;;;;;4993900;28;20662;-68
2022/03/06 04:36:11;;;;;;;0.53;0.53;;;-1.90;80.30;;;;;;4976237;28;20218;-68
2022/03/06 04:38:38;;;;;;;0.80;0.80;;;-1.90;80.70;;;;;;4993833;28;20168;-68
2022/03/06 04:41:04;;;;;;;0.70;0.70;;;-1.90;80.50;;;;;;4993719;28;20231;-68
2022/03/06 04:43:30;;;;;;;0.70;0.70;;;-2.10;81.60;;;;;;4996536;28;20662;-67
2022/03/06 04:45:55;;;;;;;0.60;0.60;;;-1.90;81.80;;;;;;4980245;28;20183;-67
2022/03/06 04:48:21;;;;;;;0.70;0.70;;;-1.80;80.90;;;;;;4997653;28;20618;-67
2022/03/06 04:50:46;;;;;;;0.40;0.40;;;-1.70;80.40;;;;;;4997319;28;20176;-67
2022/03/06 04:53:12;;;;;;;0.40;0.40;;;-1.70;80.50;;;;;;4997361;28;20233;-68
2022/03/06 04:55:38;;;;;;;1.70;1.70;;;-1.70;80.90;;;;;;4997373;28;20179;-67
2022/03/06 04:58:03;;;;;;;1.33;1.33;;;-1.70;80.40;;;;;;4997385;28;20219;-68
2022/03/06 05:00:29;;;;;;;0.53;0.53;;;-1.70;81.30;;;;;;4997246;28;20200;-68
2022/03/06 05:02:55;;;;;;;0.60;0.60;;;-1.90;88.90;;;;;;4997857;28;20219;-68
2022/03/06 05:05:21;;;;;;;0.50;0.50;;;-1.70;80.80;;;;;;4997204;28;20211;-67
2022/03/06 05:07:46;;;;;;;0.60;0.60;;;-1.50;81.60;;;;;;4997265;28;20251;-67
2022/03/06 05:10:12;;;;;;;0.50;0.50;;;-1.40;79.60;;;;;;4997010;28;20218;-67
2022/03/06 05:12:40;;;;;;;0.50;0.50;;;-0.90;81.10;;;;;;4997017;28;20246;-68
2022/03/06 05:15:07;;;;;;;0.60;0.60;;;-1.30;79.10;;;;;;4997094;28;20177;-68
2022/03/06 05:17:33;;;;;;;0.60;0.60;;;-1.30;78.60;;;;;;4997124;28;20170;-67
2022/03/06 05:19:58;;;;;;;0.50;0.50;;;-1.20;78.70;;;;;;4996912;28;20592;-67
2022/03/06 05:22:24;;;;;;;0.60;0.60;;;-1.30;78.00;;;;;;4997138;28;20409;-68
2022/03/06 05:24:49;;;;;;;0.67;0.67;;;-1.30;78.00;;;;;;4996799;28;20207;-67
2022/03/06 05:27:15;;;;;;;0.93;0.93;;;-1.50;77.90;;;;;;4996946;28;20179;-67
2022/03/06 05:29:41;;;;;;;0.57;0.57;;;-1.60;80.20;;;;;;4997000;28;20182;-68
2022/03/06 05:32:07;;;;;;;0.57;0.57;;;-1.70;79.90;;;;;;4996744;28;20165;-68
2022/03/06 05:34:32;;;;;;;0.57;0.57;;;-1.60;80.40;;;;;;4996683;28;20226;-68
2022/03/06 05:36:58;;;;;;;0.70;0.70;;;-1.60;80.50;;;;;;4996740;28;20259;-67
2022/03/06 05:39:24;;;;;;;0.50;0.50;;;-1.60;80.00;;;;;;4996608;28;20539;-67
2022/03/06 05:41:50;;;;;;;0.70;0.70;;;-1.60;80.00;;;;;;4996310;28;20207;-68
2022/03/06 05:44:15;;;;;;;0.50;0.50;;;-1.60;79.90;;;;;;4996467;28;20192;-67
2022/03/06 05:46:41;;;;;;;0.60;0.60;;;-1.70;80.10;;;;;;4996435;28;20169;-68
2022/03/06 05:49:12;;;;;;;0.60;0.60;;;-1.70;80.10;;;;;;4996418;28;20252;-68
2022/03/06 05:51:40;;;;;;;0.52;0.52;;;-1.60;79.70;;;;;;4996491;28;20357;-67
2022/03/06 05:54:07;;;;;;;0.50;0.50;;;-1.70;80.10;;;;;;4995679;28;20192;-68
2022/03/06 05:56:33;;;;;;;0.63;0.63;;;-1.80;79.80;;;;;;4996432;28;20176;-67
2022/03/06 05:58:58;;;;;;;0.57;0.57;;;-1.70;80.10;;;;;;4996230;28;20184;-67
2022/03/06 06:01:24;;;;;;;0.47;0.47;;;-1.70;79.00;;;;;;4995926;28;20598;-67
2022/03/06 06:03:50;;;;;;;0.80;0.80;;;-1.90;78.90;;;;;;4996228;28;20188;-67
2022/03/06 06:06:16;;;;;;;0.70;0.70;;;-1.70;79.30;;;;;;4996101;28;20168;-68
2022/03/06 06:08:42;;;;;;;0.50;0.50;;;-1.70;78.60;;;;;;4996181;28;20648;-67
2022/03/06 06:11:08;;;;;;;0.57;0.57;;;-1.70;78.60;;;;;;4995694;28;20426;-68
2022/03/06 06:13:33;;;;;;;0.70;0.70;;;-1.70;78.50;;;;;;4995886;28;20438;-68
2022/03/06 06:15:59;;;;;;;0.55;0.55;;;-1.60;78.30;;;;;;4995801;28;20416;-67
2022/03/06 06:18:27;;;;;;;0.60;0.60;;;-1.40;78.30;;;;;;4996079;28;20180;-68
2022/03/06 06:20:53;;;;;;;0.50;0.50;;;-1.40;77.20;;;;;;4995792;28;20283;-68
2022/03/06 06:23:19;;;;;;;0.60;0.60;;;-1.40;77.20;;;;;;4995794;28;20200;-68
2022/03/06 06:25:45;;;;;;;0.40;0.40;;;-1.40;77.00;;;;;;4995814;28;20595;-68
2022/03/06 06:28:10;;;;;;;0.60;0.60;;;-1.40;76.60;;;;;;4995945;28;20564;-67
2022/03/06 06:30:36;;;;;;;0.70;0.70;;;-1.40;76.50;;;;;;4995845;28;20256;-67
2022/03/06 06:33:02;;;;;;;0.57;0.57;;;-1.20;76.90;;;;;;4995888;28;20435;-68
2022/03/06 06:35:28;;;;;;;1.10;1.10;;;-1.30;76.30;;;;;;4995674;28;20897;-67
2022/03/06 06:37:53;;;;;;;0.50;0.50;;;-1.20;76.20;;;;;;4995536;28;20407;-69
2022/03/06 06:40:19;;;;;;;0.60;0.60;;;-1.10;76.10;;;;;;4995399;28;20451;-67
2022/03/06 06:42:45;;;;;;;0.70;0.70;;;-0.90;76.00;;;;;;4995254;28;20180;-67
2022/03/06 06:45:11;;;;;;;0.40;0.40;;;-0.80;75.10;;;;;;4977905;28;20168;-68
2022/03/06 06:47:36;;;;;;;0.50;0.50;;;-0.70;74.40;;;;;;4995384;28;20172;-68
2022/03/06 06:50:04;;;;;;;0.43;0.43;;;-0.60;73.50;;;;;;4995151;28;20411;-68
2022/03/06 06:52:29;;;;;;;0.40;0.40;;;-0.60;73.20;;;;;;4995240;28;20185;-68
2022/03/06 06:54:55;;;;;;;0.50;0.50;;;-0.50;73.60;;;;;;4995079;28;20188;-68
2022/03/06 06:57:20;;;;;;;0.37;0.37;;;-0.50;72.40;;;;;;4995382;28;20250;-68
2022/03/06 06:59:46;;;;;;;0.40;0.40;;;-0.90;70.70;;;;;;4995330;28;20546;-68
2022/03/06 07:02:12;;;;;;;0.50;0.50;;;-0.70;72.00;;;;;;4994837;28;20210;-68
2022/03/06 07:04:37;;;;;;;0.43;0.43;;;-0.40;71.60;;;;;;4994948;28;20226;-68
2022/03/06 07:07:03;;;;;;;0.50;0.50;;;-0.10;70.90;;;;;;4994198;28;20186;-68
2022/03/06 07:09:29;;;;;;;0.40;0.40;;;-0.10;69.40;;;;;;4995035;28;20223;-68
2022/03/06 07:11:56;;;;;;;1.40;1.40;;;-0.10;70.80;;;;;;4994662;28;20207;-67
2022/03/06 07:14:21;;;;;;;0.98;0.98;;;0.10;70.20;;;;;;4994923;28;20208;-68
2022/03/06 07:16:47;;;;;;;0.30;0.30;;;0.10;68.80;;;;;;4994776;28;20262;-68
2022/03/06 07:19:13;;;;;;;0.40;0.40;;;0.00;69.70;;;;;;4994823;28;20629;-67
2022/03/06 07:21:39;;;;;;;0.40;0.40;;;1.00;68.50;;;;;;4994606;28;20208;-67
2022/03/06 07:24:06;;;;;;;0.30;0.30;;;2.80;62.80;;;;;;4994797;28;20796;-67
2022/03/06 07:26:32;;;;;;;0.30;0.30;;;4.40;57.20;;;;;;4994632;28;20403;-68
2022/03/06 07:28:58;;;;;;;0.40;0.40;;;5.90;53.60;;;;;;4994794;28;20267;-68
2022/03/06 07:31:24;;;;;;;0.40;0.40;;;7.30;48.90;;;;;;4994455;28;20240;-67
2022/03/06 07:33:49;;;;;;;0.40;0.40;;;7.40;46.90;;;;;;4994467;28;20209;-68
2022/03/06 07:36:15;;;;;;;0.70;0.70;;;8.00;45.00;;;;;;4994592;28;20183;-69
2022/03/06 07:38:41;;;;;;;0.40;0.40;;;8.60;43.80;;;;;;4994591;28;20180;-69
2022/03/06 07:41:06;;;;;;;0.40;0.40;;;9.50;42.00;;;;;;4994192;28;20197;-67
2022/03/06 07:43:32;;;;;;;0.30;0.30;;;9.70;40.40;;;;;;4994601;28;20190;-69
2022/03/06 07:45:58;;;;;;;0.30;0.30;;;10.40;37.90;;;;;;4994713;28;20603;-69
2022/03/06 07:48:23;;;;;;;0.40;0.40;;;10.50;36.60;;;;;;4994338;28;20433;-68
2022/03/06 07:50:49;;;;;;;0.50;0.50;;;10.60;35.90;;;;;;4994072;28;20168;-68
2022/03/06 07:53:15;;;;;;;0.30;0.30;;;11.30;36.10;;;;;;4994289;28;20253;-68
2022/03/06 07:55:41;;;;;;;0.40;0.40;;;11.60;34.70;;;;;;4994232;28;20183;-68
2022/03/06 07:58:06;;;;;;;0.40;0.40;;;11.80;34.80;;;;;;4994146;28;20176;-68
2022/03/06 08:00:32;;;;;;;0.30;0.30;;;12.60;33.80;;;;;;4976424;28;20537;-69
2022/03/06 08:02:58;;;;;;;0.33;0.33;;;13.60;32.00;;;;;;4994130;28;20215;-69
2022/03/06 08:05:23;;;;;;;0.50;0.50;;;14.00;31.20;;;;;;4994065;28;20704;-69
2022/03/06 08:07:49;;;;;;;2.20;2.10;;;12.80;31.20;;;;;;4994166;28;20533;-69
2022/03/06 08:10:15;;;;;;;0.40;0.40;;;12.70;32.00;;;;;;4994044;28;20222;-68
2022/03/06 08:12:41;;;;;;;0.40;0.40;;;11.60;32.40;;;;;;4993749;28;20188;-69
2022/03/06 08:15:08;;;;;;;0.50;0.50;;;11.60;32.90;;;;;;4994196;28;20176;-69
2022/03/06 08:17:34;;;;;;;0.30;0.30;;;11.90;33.40;;;;;;4995440;28;20776;-68
2022/03/06 08:20:00;;;;;;;0.30;0.30;;;11.80;33.10;;;;;;4997913;28;20176;-68
2022/03/06 08:22:26;;;;;;;0.70;0.70;;;11.90;33.10;;;;;;4998235;28;20194;-68
2022/03/06 08:24:53;;;;;;;5.40;2.17;;;11.80;33.00;;;;;;4997913;28;20184;-69
2022/03/06 08:27:19;;;;;;;0.40;0.40;;;11.60;32.50;;;;;;4997939;28;20577;-68
2022/03/06 08:29:45;;;;;;;0.30;0.30;;;11.60;33.00;;;;;;4998071;28;20176;-69
2022/03/06 08:32:10;;;;;;;0.40;0.40;;;11.20;32.90;;;;;;4997769;28;20263;-69
2022/03/06 08:34:36;;;;;;;0.40;0.40;;;11.20;33.30;;;;;;4997799;28;20242;-68
2022/03/06 08:37:02;;;;;;;0.40;0.40;;;11.50;33.40;;;;;;4997863;28;20172;-68
2022/03/06 08:39:28;;;;;;;0.50;0.50;;;11.00;32.40;;;;;;4997937;28;20212;-69
2022/03/06 08:41:53;;;;;;;0.30;0.30;;;10.70;34.20;;;;;;4997343;28;20450;-67
2022/03/06 08:44:19;;;;;;;0.30;0.30;;;11.90;32.80;;;;;;4997609;28;20184;-69
2022/03/06 08:46:45;;;;;;;0.40;0.40;;;12.00;33.60;;;;;;4997675;28;20168;-69
2022/03/06 08:49:10;;;;;;;0.30;0.30;;;12.30;32.00;;;;;;4997599;28;20179;-69
2022/03/06 08:51:36;;;;;;;0.30;0.30;;;11.10;32.80;;;;;;4997344;28;20173;-68
2022/03/06 08:54:02;;;;;;;0.30;0.30;;;11.90;32.90;;;;;;4997494;28;20436;-69
2022/03/06 08:56:28;;;;;;;0.30;0.30;;;11.60;32.00;;;;;;4997662;28;20407;-68
2022/03/06 08:58:54;;;;;;;0.30;0.30;;;12.30;31.80;;;;;;4997439;28;20192;-68
2022/03/06 09:01:20;;;;;;;0.30;0.30;;;13.00;31.20;;;;;;4997310;28;20242;-69
2022/03/06 09:03:45;;;;;;;0.40;0.40;;;14.10;30.20;;;;;;4997237;28;20435;-69
2022/03/06 09:06:11;;;;;;;0.30;0.30;;;13.90;30.20;;;;;;4997231;28;20176;-68
2022/03/06 09:08:36;;;;;;;0.57;0.57;;;14.30;30.00;;;;;;4997752;28;20641;-68
2022/03/06 09:11:05;;;;;;;0.33;0.33;;;15.20;29.10;;;;;;4996909;28;20172;-70
2022/03/06 09:13:31;;;;;;;0.40;0.30;;;13.10;29.30;;;;;;4997339;28;20597;-69
2022/03/06 09:15:56;;;;;;;0.30;0.30;;;12.00;30.40;;;;;;4997342;28;20176;-70
2022/03/06 09:18:22;;;;;;;0.33;0.33;;;11.40;32.50;;;;;;4979715;28;20164;-68
2022/03/06 09:20:48;;;;;;;0.30;0.30;;;11.30;31.60;;;;;;4996811;28;20335;-68
2022/03/06 09:23:13;;;;;;;1.60;1.53;;;9.90;34.50;;;;;;4995792;28;20568;-69
2022/03/06 09:25:39;;;;;;;0.40;0.40;;;10.90;33.20;;;;;;4997097;28;20603;-69
2022/03/06 09:28:05;;;;;;;0.80;0.80;;;11.80;32.20;;;;;;4996711;28;20172;-68
2022/03/06 09:30:31;;;;;;;0.30;0.30;;;12.50;30.90;;;;;;4995985;28;20283;-68
2022/03/06 09:32:57;;;;;;;0.82;0.82;;;11.30;31.40;;;;;;4996926;28;20240;-69
2022/03/06 09:35:23;;;;;;;0.30;0.30;;;12.10;32.20;;;;;;4979862;28;20658;-68
2022/03/06 09:37:49;;;;;;;0.30;0.30;;;12.60;31.20;;;;;;4996845;28;20215;-69
2022/03/06 09:40:15;;;;;;;0.93;0.93;;;13.70;30.60;;;;;;4996675;28;20204;-69
2022/03/06 09:42:41;;;;;;;0.30;0.30;;;14.10;29.60;;;;;;4996480;28;20399;-69
2022/03/06 09:45:09;;;;;;;0.57;0.57;;;14.50;29.30;;;;;;4996666;28;20490;-69
2022/03/06 09:47:36;;;;;;;0.30;0.30;;;16.00;29.00;;;;;;4996523;28;20439;-69
2022/03/06 09:50:05;;;;;;;0.47;0.47;;;16.70;28.10;;;;;;4996299;28;20468;-68
2022/03/06 09:52:30;;;;;;;0.30;0.30;;;17.70;27.30;;;;;;4996310;28;20412;-68
2022/03/06 09:54:56;;;;;;;0.50;0.50;;;19.20;26.90;;;;;;4996292;28;20488;-69
2022/03/06 09:57:22;;;;;;;0.83;0.83;;;19.90;26.00;;;;;;4978879;28;20186;-69
2022/03/06 09:59:48;;;;;;;0.50;0.50;;;20.20;25.00;;;;;;4996361;28;20486;-69
2022/03/06 10:02:16;;;;;;;1.27;1.27;;;20.20;24.50;;;;;;4996478;28;20985;-70
2022/03/06 10:04:42;;;;;;;0.30;0.30;;;20.30;25.40;;;;;;4996154;28;20796;-70
2022/03/06 10:07:11;;;;;;;0.40;0.40;;;20.00;23.90;;;;;;4996254;28;20413;-68
2022/03/06 10:09:50;;;;;;;0.40;0.40;;;18.60;24.70;;;;;;4996109;28;20444;-69
2022/03/06 10:12:22;;;;;;;2.53;2.43;;;18.10;25.40;;;;;;4995846;28;20423;-69
2022/03/06 10:14:50;;;;;;;0.30;0.30;;;17.20;25.30;;;;;;4995916;28;20434;-69
2022/03/06 10:17:21;;;;;;;1.17;1.17;;;14.20;27.70;;;;;;4996113;28;20411;-69
2022/03/06 10:19:54;;;;;;;0.30;0.30;;;13.50;28.90;;;;;;4996542;28;20505;-70
2022/03/06 10:22:22;;;;;;;0.73;0.60;;;15.40;28.90;;;;;;4995796;28;20486;-69
2022/03/06 10:24:53;;;;;;;0.30;0.30;;;16.80;27.10;;;;;;4995729;28;20443;-69
2022/03/06 10:27:44;;;;;;;0.53;0.50;;;17.60;26.40;;;;;;4995924;28;20417;-70
2022/03/06 10:30:34;;;;;;;0.40;0.40;;;16.60;25.40;;;;;;4995642;28;20535;-69
2022/03/06 10:33:02;;;;;;;2.17;2.07;;;16.50;26.90;;;;;;4995783;28;20788;-69
2022/03/06 10:35:31;;;;;;;0.40;0.40;;;14.30;26.60;;;;;;4995574;28;20414;-69
2022/03/06 10:37:57;;;;;;;0.30;0.30;;;13.10;28.20;;;;;;4995685;28;20407;-70
2022/03/06 10:40:37;;;;;;;1.17;1.17;;;13.60;28.80;;;;;;4995029;28;20555;-69
2022/03/06 10:43:19;;;;;;;0.30;0.30;;;13.50;29.00;;;;;;4995561;28;20441;-70
2022/03/06 10:45:46;;;;;;;0.67;0.67;;;15.00;28.70;;;;;;4995415;28;20388;-69
2022/03/06 10:48:12;;;;;;;0.33;0.33;;;16.60;27.70;;;;;;4995310;28;20753;-69
2022/03/06 10:50:38;;;;;;;1.27;1.17;;;17.40;25.80;;;;;;4995228;28;20426;-68
2022/03/06 10:53:23;;;;;;;0.30;0.30;;;16.80;26.00;;;;;;4995199;28;20287;-68
2022/03/06 10:55:49;;;;;;;0.70;0.70;;;13.70;28.10;;;;;;4995419;28;20579;-68
2022/03/06 10:58:14;;;;;;;0.30;0.30;;;12.70;29.40;;;;;;4995305;28;20445;-69
2022/03/06 11:00:41;;;;;;;0.60;0.60;;;13.20;29.60;;;;;;4994890;28;20538;-68
2022/03/06 11:03:07;;;;;;;1.67;1.37;;;14.30;28.60;;;;;;4995205;28;20278;-69
2022/03/06 11:05:33;;;;;;;0.40;0.40;;;15.50;28.10;;;;;;4994933;28;20779;-68
2022/03/06 11:08:01;;;;;;;0.40;0.40;;;15.30;26.40;;;;;;4977557;28;20472;-69
2022/03/06 11:10:27;;;;;;;0.30;0.30;;;14.60;26.90;;;;;;4994788;28;20733;-68
2022/03/06 11:12:53;;;;;;;0.50;0.50;;;11.90;28.70;;;;;;4994811;28;20439;-68
2022/03/06 11:15:20;;;;;;;0.40;0.40;;;11.70;28.40;;;;;;4977322;28;20951;-69
2022/03/06 11:17:46;;;;;;;0.30;0.30;;;12.00;30.10;;;;;;4995058;28;20885;-69
2022/03/06 11:20:12;;;;;;;0.30;0.30;;;12.40;30.40;;;;;;4994443;28;20470;-68
2022/03/06 11:23:10;;;;;;;0.30;0.30;;;11.40;29.00;;;;;;4995107;28;20544;-68
2022/03/06 11:25:41;;;;;;;0.40;0.40;;;9.60;32.00;;;;;;4981792;28;20188;-68
2022/03/06 11:28:27;;;;;;;0.40;0.40;;;8.00;34.20;;;;;;4994859;28;20175;-69
2022/03/06 11:30:58;;;;;;;0.40;0.40;;;7.20;36.70;;;;;;4994602;28;20595;-68
2022/03/06 11:33:24;;;;;;;0.40;0.40;;;6.70;38.00;;;;;;4994442;28;20288;-67
2022/03/06 11:35:50;;;;;;;0.30;0.30;;;6.70;40.30;;;;;;4994378;28;20252;-72
2022/03/06 11:38:20;;;;;;;0.38;0.38;;;6.50;39.70;;;;;;4994638;28;20168;-68
2022/03/06 11:40:50;;;;;;;0.68;0.68;;;6.70;41.90;;;;;;4994235;28;20205;-68
2022/03/06 11:43:37;;;;;;;0.40;0.40;;;6.90;39.90;;;;;;4994774;28;20238;-68
2022/03/06 11:46:16;;;;;;;0.40;0.40;;;7.00;37.50;;;;;;4994662;28;20239;-67
2022/03/06 11:48:42;;;;;;;0.30;0.30;;;7.00;39.10;;;;;;4994449;28;20211;-69
2022/03/06 11:51:22;;;;;;;0.40;0.40;;;6.70;40.60;;;;;;4994115;28;20176;-68
2022/03/06 11:54:06;;;;;;;0.40;0.40;;;6.90;39.40;;;;;;4993944;28;20611;-68
2022/03/06 11:56:34;;;;;;;0.40;0.40;;;7.20;38.60;;;;;;4994378;28;20178;-68
2022/03/06 11:59:06;;;;;;;0.40;0.40;;;7.60;37.70;;;;;;4994297;28;20172;-69
2022/03/06 12:01:40;;;;;;;0.40;0.40;;;8.00;38.10;;;;;;4993891;28;20212;-69
2022/03/06 12:04:26;;;;;;;0.40;0.40;;;7.90;39.00;;;;;;4994035;28;20673;-68
2022/03/06 12:07:00;;;;;;;0.40;0.40;;;8.00;38.70;;;;;;4976718;28;20637;-68
2022/03/06 12:09:30;;;;;;;0.40;0.40;;;7.90;36.50;;;;;;4994315;28;20593;-69
2022/03/06 12:11:59;;;;;;;0.40;0.40;;;7.70;36.90;;;;;;4993923;28;20666;-68
2022/03/06 12:14:44;;;;;;;0.40;0.40;;;7.10;37.00;;;;;;4993879;28;20218;-69
2022/03/06 12:17:12;;;;;;;0.40;0.40;;;7.40;37.80;;;;;;4994025;28;20664;-68
2022/03/06 12:19:44;;;;;;;0.40;0.40;;;7.60;37.40;;;;;;4993980;28;20185;-69
2022/03/06 12:22:11;;;;;;;0.40;0.40;;;7.00;38.00;;;;;;4993819;28;20242;-69
2022/03/06 12:24:38;;;;;;;0.40;0.40;;;7.30;38.90;;;;;;4993814;28;20212;-69
2022/03/06 12:27:20;;;;;;;0.30;0.30;;;7.90;38.20;;;;;;4993940;28;20206;-68
2022/03/06 12:29:46;;;;;;;0.60;0.60;;;7.90;38.50;;;;;;4994182;28;20181;-68
2022/03/06 12:32:27;;;;;;;0.30;0.30;;;7.90;37.70;;;;;;4993685;28;20175;-69
2022/03/06 12:35:22;;;;;;;1.15;1.15;;;7.80;37.00;;;;;;4993766;28;20197;-68
2022/03/06 12:37:59;;;;;;;0.40;0.40;;;7.80;37.30;;;;;;4976493;28;20600;-67
2022/03/06 12:40:27;;;;;;;0.30;0.30;;;7.80;36.90;;;;;;4993775;28;20196;-68
2022/03/06 12:43:00;;;;;;;0.40;0.40;;;7.80;37.80;;;;;;4993808;28;20261;-68
2022/03/06 12:45:26;;;;;;;0.40;0.40;;;8.00;36.50;;;;;;4993685;28;20199;-69
2022/03/06 12:47:52;;;;;;;0.30;0.30;;;8.20;37.60;;;;;;4993708;28;20183;-68